sensor_id;sensor_type;location;lat;lon;timestamp;pressure;altitude;pressure_sealevel;temperature;humidity
60055;BME280;45930;53.514;55.904;2023-04-08T00:00:04;49334.00;;;-149.77;39.44
60055;BME280;45930;53.514;55.904;2023-04-08T00:01:06;49312.22;;;-149.77;39.50
60055;BME280;45930;53.514;55.904;2023-04-08T00:02:07;49290.44;;;-149.77;39.82
60055;BME280;45930;53.514;55.904;2023-04-08T00:03:08;49320.16;;;-149.77;39.72
60055;BME280;45930;53.514;55.904;2023-04-08T00:04:09;49302.31;;;-149.77;39.43
60055;BME280;45930;53.514;55.904;2023-04-08T00:05:10;49330.03;;;-149.77;39.60
60055;BME280;45930;53.514;55.904;2023-04-08T00:06:11;49312.22;;;-149.77;39.45
60055;BME280;45930;53.514;55.904;2023-04-08T00:07:11;49324.09;;;-149.77;39.50
60055;BME280;45930;53.514;55.904;2023-04-08T00:08:12;49288.44;;;-149.77;39.58
60055;BME280;45930;53.514;55.904;2023-04-08T00:09:13;49298.34;;;-149.77;39.45
60055;BME280;45930;53.514;55.904;2023-04-08T00:10:14;49310.25;;;-149.77;39.46
60055;BME280;45930;53.514;55.904;2023-04-08T00:11:15;49314.19;;;-149.77;39.26
60055;BME280;45930;53.514;55.904;2023-04-08T00:12:15;49286.47;;;-149.77;39.05
60055;BME280;45930;53.514;55.904;2023-04-08T00:13:16;49326.09;;;-149.77;38.63
60055;BME280;45930;53.514;55.904;2023-04-08T00:14:17;49278.53;;;-149.77;38.54
60055;BME280;45930;53.514;55.904;2023-04-08T00:15:18;49322.13;;;-149.77;38.56
60055;BME280;45930;53.514;55.904;2023-04-08T00:16:18;49296.38;;;-149.77;38.58
60055;BME280;45930;53.514;55.904;2023-04-08T00:17:19;49326.09;;;-149.77;38.71
60055;BME280;45930;53.514;55.904;2023-04-08T00:18:20;49270.63;;;-149.77;38.62
60055;BME280;45930;53.514;55.904;2023-04-08T00:19:21;49290.44;;;-149.77;38.47
60055;BME280;45930;53.514;55.904;2023-04-08T00:20:23;49298.34;;;-149.77;38.09
60055;BME280;45930;53.514;55.904;2023-04-08T00:21:23;49282.50;;;-149.77;37.70
60055;BME280;45930;53.514;55.904;2023-04-08T00:22:24;49345.91;;;-149.77;37.94
60055;BME280;45930;53.514;55.904;2023-04-08T00:23:25;49288.44;;;-149.77;37.63
60055;BME280;45930;53.514;55.904;2023-04-08T00:24:26;49306.28;;;-149.77;37.68
60055;BME280;45930;53.514;55.904;2023-04-08T00:25:27;49282.50;;;-149.77;37.58
60055;BME280;45930;53.514;55.904;2023-04-08T00:26:27;49290.44;;;-149.77;37.53
60055;BME280;45930;53.514;55.904;2023-04-08T00:27:28;49286.47;;;-149.77;37.83
60055;BME280;45930;53.514;55.904;2023-04-08T00:28:29;49304.28;;;-149.77;37.35
60055;BME280;45930;53.514;55.904;2023-04-08T00:29:30;49316.19;;;-149.77;37.41
60055;BME280;45930;53.514;55.904;2023-04-08T00:30:31;49318.16;;;-149.77;37.31
60055;BME280;45930;53.514;55.904;2023-04-08T00:31:32;49332.03;;;-149.77;37.38
60055;BME280;45930;53.514;55.904;2023-04-08T00:32:33;49304.28;;;-149.77;37.53
60055;BME280;45930;53.514;55.904;2023-04-08T00:33:34;49294.41;;;-149.77;37.32
60055;BME280;45930;53.514;55.904;2023-04-08T00:34:34;49296.38;;;-149.77;37.41
60055;BME280;45930;53.514;55.904;2023-04-08T00:35:36;49322.13;;;-149.77;37.17
60055;BME280;45930;53.514;55.904;2023-04-08T00:36:37;49328.06;;;-149.77;37.55
60055;BME280;45930;53.514;55.904;2023-04-08T00:37:38;49310.25;;;-149.77;38.21
60055;BME280;45930;53.514;55.904;2023-04-08T00:38:38;49296.38;;;-149.77;39.30
60055;BME280;45930;53.514;55.904;2023-04-08T00:39:39;49294.41;;;-149.77;40.16
60055;BME280;45930;53.514;55.904;2023-04-08T00:40:40;49306.28;;;-149.77;40.52
60055;BME280;45930;53.514;55.904;2023-04-08T00:41:41;49284.50;;;-149.77;39.82
60055;BME280;45930;53.514;55.904;2023-04-08T00:42:42;49330.03;;;-149.77;39.75
60055;BME280;45930;53.514;55.904;2023-04-08T00:43:43;49312.22;;;-149.77;39.27
60055;BME280;45930;53.514;55.904;2023-04-08T00:44:44;49318.16;;;-149.77;39.40
60055;BME280;45930;53.514;55.904;2023-04-08T00:45:45;49294.41;;;-149.77;38.83
60055;BME280;45930;53.514;55.904;2023-04-08T00:46:46;49280.53;;;-149.77;38.71
60055;BME280;45930;53.514;55.904;2023-04-08T00:47:47;49294.41;;;-149.77;38.25
60055;BME280;45930;53.514;55.904;2023-04-08T00:48:52;49314.19;;;-149.77;37.96
60055;BME280;45930;53.514;55.904;2023-04-08T00:49:54;49306.28;;;-149.77;37.94
60055;BME280;45930;53.514;55.904;2023-04-08T00:50:54;49314.19;;;-149.77;37.55
60055;BME280;45930;53.514;55.904;2023-04-08T00:51:55;49286.47;;;-149.77;37.41
60055;BME280;45930;53.514;55.904;2023-04-08T00:52:56;49322.13;;;-149.77;37.38
60055;BME280;45930;53.514;55.904;2023-04-08T00:53:57;49304.28;;;-149.77;37.40
60055;BME280;45930;53.514;55.904;2023-04-08T00:54:57;49302.31;;;-149.77;37.13
60055;BME280;45930;53.514;55.904;2023-04-08T00:55:58;49320.16;;;-149.77;37.22
60055;BME280;45930;53.514;55.904;2023-04-08T00:57:00;49320.16;;;-149.77;37.19
60055;BME280;45930;53.514;55.904;2023-04-08T00:58:01;49302.31;;;-149.77;37.25
60055;BME280;45930;53.514;55.904;2023-04-08T00:59:02;49306.28;;;-149.77;37.25
60055;BME280;45930;53.514;55.904;2023-04-08T01:00:05;49278.53;;;-149.77;37.30
60055;BME280;45930;53.514;55.904;2023-04-08T01:01:11;49324.09;;;-149.77;37.29
60055;BME280;45930;53.514;55.904;2023-04-08T01:06:34;49304.28;;;-149.77;37.01
60055;BME280;45930;53.514;55.904;2023-04-08T01:07:48;49290.44;;;-149.77;37.23
60055;BME280;45930;53.514;55.904;2023-04-08T01:08:50;49302.31;;;-149.77;37.07
60055;BME280;45930;53.514;55.904;2023-04-08T01:09:55;49284.50;;;-149.77;37.29
60055;BME280;45930;53.514;55.904;2023-04-08T01:11:01;49316.19;;;-149.77;37.10
60055;BME280;45930;53.514;55.904;2023-04-08T01:12:05;49294.41;;;-149.77;37.23
60055;BME280;45930;53.514;55.904;2023-04-08T01:13:08;49290.44;;;-149.77;37.33
60055;BME280;45930;53.514;55.904;2023-04-08T01:14:16;49284.50;;;-149.77;37.29
60055;BME280;45930;53.514;55.904;2023-04-08T01:15:19;49270.63;;;-149.77;37.16
60055;BME280;45930;53.514;55.904;2023-04-08T01:16:21;49302.31;;;-149.77;37.26
60055;BME280;45930;53.514;55.904;2023-04-08T01:17:24;49302.31;;;-149.77;37.15
60055;BME280;45930;53.514;55.904;2023-04-08T01:18:25;49294.41;;;-149.77;37.23
60055;BME280;45930;53.514;55.904;2023-04-08T01:19:32;49310.25;;;-149.77;37.05
60055;BME280;45930;53.514;55.904;2023-04-08T01:20:34;49306.28;;;-149.77;37.11
60055;BME280;45930;53.514;55.904;2023-04-08T01:21:36;49332.03;;;-149.77;37.26
60055;BME280;45930;53.514;55.904;2023-04-08T01:24:08;49268.63;;;-149.77;37.26
60055;BME280;45930;53.514;55.904;2023-04-08T01:25:16;49300.34;;;-149.77;37.13
60055;BME280;45930;53.514;55.904;2023-04-08T01:26:25;49316.19;;;-149.77;37.38
60055;BME280;45930;53.514;55.904;2023-04-08T01:27:27;49290.44;;;-149.77;37.23
60055;BME280;45930;53.514;55.904;2023-04-08T01:28:30;49314.19;;;-149.77;37.27
60055;BME280;45930;53.514;55.904;2023-04-08T01:29:33;49312.22;;;-149.77;37.26
60055;BME280;45930;53.514;55.904;2023-04-08T01:30:37;49312.22;;;-149.77;37.41
60055;BME280;45930;53.514;55.904;2023-04-08T01:31:39;49310.25;;;-149.77;37.38
60055;BME280;45930;53.514;55.904;2023-04-08T01:32:43;49320.16;;;-149.77;37.15
60055;BME280;45930;53.514;55.904;2023-04-08T01:33:45;49306.28;;;-149.77;37.22
60055;BME280;45930;53.514;55.904;2023-04-08T01:34:48;49292.41;;;-149.77;37.21
60055;BME280;45930;53.514;55.904;2023-04-08T01:35:50;49300.34;;;-149.77;37.11
60055;BME280;45930;53.514;55.904;2023-04-08T01:36:52;49298.34;;;-149.77;37.05
60055;BME280;45930;53.514;55.904;2023-04-08T01:37:55;49310.25;;;-149.77;37.36
60055;BME280;45930;53.514;55.904;2023-04-08T01:38:59;49288.44;;;-149.77;37.34
60055;BME280;45930;53.514;55.904;2023-04-08T01:40:01;49272.59;;;-149.77;37.23
60055;BME280;45930;53.514;55.904;2023-04-08T01:41:04;49298.34;;;-149.77;37.32
60055;BME280;45930;53.514;55.904;2023-04-08T01:42:08;49286.47;;;-149.77;37.45
60055;BME280;45930;53.514;55.904;2023-04-08T01:43:11;49304.28;;;-149.77;37.41
60055;BME280;45930;53.514;55.904;2023-04-08T01:44:13;49337.97;;;-149.77;37.24
60055;BME280;45930;53.514;55.904;2023-04-08T01:45:15;49312.22;;;-149.77;36.99
60055;BME280;45930;53.514;55.904;2023-04-08T01:46:17;49292.41;;;-149.77;37.00
60055;BME280;45930;53.514;55.904;2023-04-08T01:47:18;49318.16;;;-149.77;37.37
60055;BME280;45930;53.514;55.904;2023-04-08T01:48:19;49288.44;;;-149.77;37.48
60055;BME280;45930;53.514;55.904;2023-04-08T01:49:21;49286.47;;;-149.77;36.92
60055;BME280;45930;53.514;55.904;2023-04-08T01:50:24;49330.03;;;-149.77;36.96
60055;BME280;45930;53.514;55.904;2023-04-08T01:51:27;49304.28;;;-149.77;37.00
60055;BME280;45930;53.514;55.904;2023-04-08T01:52:28;49320.16;;;-149.77;36.91
60055;BME280;45930;53.514;55.904;2023-04-08T01:53:30;49292.41;;;-149.77;36.86
60055;BME280;45930;53.514;55.904;2023-04-08T01:54:32;49302.31;;;-149.77;36.89
60055;BME280;45930;53.514;55.904;2023-04-08T01:55:35;49274.59;;;-149.77;36.59
60055;BME280;45930;53.514;55.904;2023-04-08T01:56:38;49322.13;;;-149.77;36.59
60055;BME280;45930;53.514;55.904;2023-04-08T01:57:43;49288.44;;;-149.77;36.54
60055;BME280;45930;53.514;55.904;2023-04-08T01:58:51;49284.50;;;-149.77;36.38
60055;BME280;45930;53.514;55.904;2023-04-08T01:59:56;49276.56;;;-149.77;36.25
60055;BME280;45930;53.514;55.904;2023-04-08T02:00:59;49316.19;;;-149.77;36.36
60055;BME280;45930;53.514;55.904;2023-04-08T02:02:01;49276.56;;;-149.77;36.31
60055;BME280;45930;53.514;55.904;2023-04-08T02:03:05;49334.00;;;-149.77;36.29
60055;BME280;45930;53.514;55.904;2023-04-08T02:04:06;49290.44;;;-149.77;36.38
60055;BME280;45930;53.514;55.904;2023-04-08T02:05:07;49276.56;;;-149.77;36.35
60055;BME280;45930;53.514;55.904;2023-04-08T02:06:08;49286.47;;;-149.77;36.32
60055;BME280;45930;53.514;55.904;2023-04-08T02:07:10;49316.19;;;-149.77;36.56
60055;BME280;45930;53.514;55.904;2023-04-08T02:08:11;49318.16;;;-149.77;36.98
60055;BME280;45930;53.514;55.904;2023-04-08T02:09:12;49318.16;;;-149.77;37.06
60055;BME280;45930;53.514;55.904;2023-04-08T02:10:14;49290.44;;;-149.77;36.96
60055;BME280;45930;53.514;55.904;2023-04-08T02:11:15;49306.28;;;-149.77;36.80
60055;BME280;45930;53.514;55.904;2023-04-08T02:12:16;49320.16;;;-149.77;36.52
60055;BME280;45930;53.514;55.904;2023-04-08T02:13:17;49286.47;;;-149.77;36.50
60055;BME280;45930;53.514;55.904;2023-04-08T02:14:18;49306.28;;;-149.77;36.55
60055;BME280;45930;53.514;55.904;2023-04-08T02:15:19;49290.44;;;-149.77;36.28
60055;BME280;45930;53.514;55.904;2023-04-08T02:16:41;49314.19;;;-149.77;36.57
60055;BME280;45930;53.514;55.904;2023-04-08T02:18:00;49298.34;;;-149.77;36.17
60055;BME280;45930;53.514;55.904;2023-04-08T02:19:11;49288.44;;;-149.77;36.02
60055;BME280;45930;53.514;55.904;2023-04-08T02:21:21;49276.56;;;-149.77;36.58
60055;BME280;45930;53.514;55.904;2023-04-08T02:23:00;49298.34;;;-149.77;36.75
60055;BME280;45930;53.514;55.904;2023-04-08T02:24:04;49302.31;;;-149.77;36.65
60055;BME280;45930;53.514;55.904;2023-04-08T02:25:12;49294.41;;;-149.77;36.18
60055;BME280;45930;53.514;55.904;2023-04-08T02:26:14;49292.41;;;-149.77;36.43
60055;BME280;45930;53.514;55.904;2023-04-08T02:27:19;49286.47;;;-149.77;36.47
60055;BME280;45930;53.514;55.904;2023-04-08T02:28:21;49290.44;;;-149.77;36.10
60055;BME280;45930;53.514;55.904;2023-04-08T02:29:23;49280.53;;;-149.77;36.09
60055;BME280;45930;53.514;55.904;2023-04-08T02:30:26;49290.44;;;-149.77;36.34
60055;BME280;45930;53.514;55.904;2023-04-08T02:31:27;49314.19;;;-149.77;36.12
60055;BME280;45930;53.514;55.904;2023-04-08T02:32:31;49280.53;;;-149.77;36.17
60055;BME280;45930;53.514;55.904;2023-04-08T02:33:33;49290.44;;;-149.77;36.17
60055;BME280;45930;53.514;55.904;2023-04-08T02:34:38;49258.75;;;-149.77;36.07
60055;BME280;45930;53.514;55.904;2023-04-08T02:35:40;49256.75;;;-149.77;36.31
60055;BME280;45930;53.514;55.904;2023-04-08T02:36:41;49284.50;;;-149.77;36.06
60055;BME280;45930;53.514;55.904;2023-04-08T02:37:45;49274.59;;;-149.77;36.25
60055;BME280;45930;53.514;55.904;2023-04-08T02:38:50;49290.44;;;-149.77;36.03
60055;BME280;45930;53.514;55.904;2023-04-08T02:39:51;49318.16;;;-149.77;35.72
60055;BME280;45930;53.514;55.904;2023-04-08T02:40:52;49280.53;;;-149.77;35.79
60055;BME280;45930;53.514;55.904;2023-04-08T02:41:52;49290.44;;;-149.77;35.63
60055;BME280;45930;53.514;55.904;2023-04-08T02:42:54;49304.28;;;-149.77;35.80
60055;BME280;45930;53.514;55.904;2023-04-08T02:43:55;49280.53;;;-149.77;35.59
60055;BME280;45930;53.514;55.904;2023-04-08T02:44:56;49296.38;;;-149.77;35.29
60055;BME280;45930;53.514;55.904;2023-04-08T02:45:58;49278.53;;;-149.77;35.24
60055;BME280;45930;53.514;55.904;2023-04-08T02:47:06;49286.47;;;-149.77;35.40
60055;BME280;45930;53.514;55.904;2023-04-08T02:48:07;49294.41;;;-149.77;34.99
60055;BME280;45930;53.514;55.904;2023-04-08T02:49:08;49278.53;;;-149.77;35.02
60055;BME280;45930;53.514;55.904;2023-04-08T02:50:09;49272.59;;;-149.77;35.26
60055;BME280;45930;53.514;55.904;2023-04-08T02:51:10;49264.69;;;-149.77;35.05
60055;BME280;45930;53.514;55.904;2023-04-08T02:52:11;49280.53;;;-149.77;35.31
60055;BME280;45930;53.514;55.904;2023-04-08T02:53:11;49268.63;;;-149.77;35.40
60055;BME280;45930;53.514;55.904;2023-04-08T02:54:12;49310.25;;;-149.77;35.52
60055;BME280;45930;53.514;55.904;2023-04-08T02:55:13;49252.78;;;-149.77;35.36
60055;BME280;45930;53.514;55.904;2023-04-08T02:56:14;49290.44;;;-149.77;35.41
60055;BME280;45930;53.514;55.904;2023-04-08T02:57:14;49286.47;;;-149.77;35.76
60055;BME280;45930;53.514;55.904;2023-04-08T02:58:16;49274.59;;;-149.77;35.55
60055;BME280;45930;53.514;55.904;2023-04-08T02:59:17;49274.59;;;-149.77;35.81
60055;BME280;45930;53.514;55.904;2023-04-08T03:00:18;49264.69;;;-149.77;35.39
60055;BME280;45930;53.514;55.904;2023-04-08T03:01:19;49270.63;;;-149.77;35.41
60055;BME280;45930;53.514;55.904;2023-04-08T03:02:20;49250.81;;;-149.77;35.46
60055;BME280;45930;53.514;55.904;2023-04-08T03:03:20;49264.69;;;-149.77;35.34
60055;BME280;45930;53.514;55.904;2023-04-08T03:04:28;49264.69;;;-149.77;35.00
60055;BME280;45930;53.514;55.904;2023-04-08T03:05:29;49290.44;;;-149.77;35.21
60055;BME280;45930;53.514;55.904;2023-04-08T03:06:30;49276.56;;;-149.77;34.63
60055;BME280;45930;53.514;55.904;2023-04-08T03:07:32;49280.53;;;-149.77;34.68
60055;BME280;45930;53.514;55.904;2023-04-08T03:08:32;49264.69;;;-149.77;34.51
60055;BME280;45930;53.514;55.904;2023-04-08T03:09:33;49250.81;;;-149.77;34.63
60055;BME280;45930;53.514;55.904;2023-04-08T03:10:34;49260.72;;;-149.77;34.63
60055;BME280;45930;53.514;55.904;2023-04-08T03:11:35;49246.84;;;-149.77;34.68
60055;BME280;45930;53.514;55.904;2023-04-08T03:12:36;49250.81;;;-149.77;34.59
60055;BME280;45930;53.514;55.904;2023-04-08T03:13:37;49254.78;;;-149.77;34.75
60055;BME280;45930;53.514;55.904;2023-04-08T03:14:38;49270.63;;;-149.77;34.47
60055;BME280;45930;53.514;55.904;2023-04-08T03:15:38;49262.69;;;-149.77;34.39
60055;BME280;45930;53.514;55.904;2023-04-08T03:16:39;49254.78;;;-149.77;34.17
60055;BME280;45930;53.514;55.904;2023-04-08T03:17:40;49250.81;;;-149.77;34.14
60055;BME280;45930;53.514;55.904;2023-04-08T03:18:41;49234.97;;;-149.77;34.04
60055;BME280;45930;53.514;55.904;2023-04-08T03:19:42;49276.56;;;-149.77;34.26
60055;BME280;45930;53.514;55.904;2023-04-08T03:20:43;49264.69;;;-149.77;34.22
60055;BME280;45930;53.514;55.904;2023-04-08T03:21:43;49262.69;;;-149.77;34.04
60055;BME280;45930;53.514;55.904;2023-04-08T03:22:44;49236.94;;;-149.77;33.84
60055;BME280;45930;53.514;55.904;2023-04-08T03:23:45;49258.75;;;-149.77;34.00
60055;BME280;45930;53.514;55.904;2023-04-08T03:24:46;49260.72;;;-149.77;33.03
60055;BME280;45930;53.514;55.904;2023-04-08T03:25:47;49262.69;;;-149.77;33.22
60055;BME280;45930;53.514;55.904;2023-04-08T03:26:48;49233.00;;;-149.77;33.19
60055;BME280;45930;53.514;55.904;2023-04-08T03:27:48;49250.81;;;-149.77;33.33
60055;BME280;45930;53.514;55.904;2023-04-08T03:28:51;49233.00;;;-149.77;33.35
60055;BME280;45930;53.514;55.904;2023-04-08T03:29:52;49219.13;;;-149.77;33.19
60055;BME280;45930;53.514;55.904;2023-04-08T03:30:53;49221.09;;;-149.77;32.65
60055;BME280;45930;53.514;55.904;2023-04-08T03:31:54;49246.84;;;-149.77;32.42
60055;BME280;45930;53.514;55.904;2023-04-08T03:32:54;49238.94;;;-149.77;31.99
60055;BME280;45930;53.514;55.904;2023-04-08T03:33:55;49209.22;;;-149.77;32.24
60055;BME280;45930;53.514;55.904;2023-04-08T03:34:56;49246.84;;;-149.77;32.56
60055;BME280;45930;53.514;55.904;2023-04-08T03:35:57;49227.03;;;-149.77;32.18
60055;BME280;45930;53.514;55.904;2023-04-08T03:36:57;49236.94;;;-149.77;32.32
60055;BME280;45930;53.514;55.904;2023-04-08T03:37:58;49252.78;;;-149.77;32.62
60055;BME280;45930;53.514;55.904;2023-04-08T03:38:59;49242.91;;;-149.77;32.13
60055;BME280;45930;53.514;55.904;2023-04-08T03:40:00;49229.03;;;-149.77;32.30
60055;BME280;45930;53.514;55.904;2023-04-08T03:41:01;49219.13;;;-149.77;31.99
60055;BME280;45930;53.514;55.904;2023-04-08T03:42:02;49219.13;;;-149.77;32.19
60055;BME280;45930;53.514;55.904;2023-04-08T03:43:03;49236.94;;;-149.77;32.07
60055;BME280;45930;53.514;55.904;2023-04-08T03:44:05;49248.84;;;-149.77;31.99
60055;BME280;45930;53.514;55.904;2023-04-08T03:45:06;49234.97;;;-149.77;31.85
60055;BME280;45930;53.514;55.904;2023-04-08T03:46:07;49221.09;;;-149.77;31.54
60055;BME280;45930;53.514;55.904;2023-04-08T03:47:08;49231.00;;;-149.77;31.61
60055;BME280;45930;53.514;55.904;2023-04-08T03:48:08;49227.03;;;-149.77;30.52
60055;BME280;45930;53.514;55.904;2023-04-08T03:49:09;49211.19;;;-149.77;30.41
60055;BME280;45930;53.514;55.904;2023-04-08T03:50:10;49227.03;;;-149.77;30.21
60055;BME280;45930;53.514;55.904;2023-04-08T03:51:11;49236.94;;;-149.77;30.19
60055;BME280;45930;53.514;55.904;2023-04-08T03:52:12;49234.97;;;-149.77;30.56
60055;BME280;45930;53.514;55.904;2023-04-08T03:53:12;49238.94;;;-149.77;31.07
60055;BME280;45930;53.514;55.904;2023-04-08T03:54:13;49246.84;;;-149.77;30.77
60055;BME280;45930;53.514;55.904;2023-04-08T03:55:14;49197.34;;;-149.77;30.95
60055;BME280;45930;53.514;55.904;2023-04-08T03:56:15;49233.00;;;-149.77;29.93
60055;BME280;45930;53.514;55.904;2023-04-08T03:57:15;49234.97;;;-149.77;29.70
60055;BME280;45930;53.514;55.904;2023-04-08T03:58:16;49250.81;;;-149.77;29.62
60055;BME280;45930;53.514;55.904;2023-04-08T03:59:17;49199.31;;;-149.77;29.80
60055;BME280;45930;53.514;55.904;2023-04-08T04:00:18;49213.19;;;-149.77;29.82
60055;BME280;45930;53.514;55.904;2023-04-08T04:01:18;49211.19;;;-149.77;29.86
60055;BME280;45930;53.514;55.904;2023-04-08T04:02:19;49221.09;;;-149.77;29.65
60055;BME280;45930;53.514;55.904;2023-04-08T04:03:20;49213.19;;;-149.77;30.00
60055;BME280;45930;53.514;55.904;2023-04-08T04:04:21;49199.31;;;-149.77;29.26
60055;BME280;45930;53.514;55.904;2023-04-08T04:05:21;49244.88;;;-149.77;29.60
60055;BME280;45930;53.514;55.904;2023-04-08T04:06:22;49236.94;;;-149.77;29.04
60055;BME280;45930;53.514;55.904;2023-04-08T04:07:23;49217.13;;;-149.77;29.27
60055;BME280;45930;53.514;55.904;2023-04-08T04:08:24;49227.03;;;-149.77;28.94
60055;BME280;45930;53.514;55.904;2023-04-08T04:09:24;49221.09;;;-149.77;29.26
60055;BME280;45930;53.514;55.904;2023-04-08T04:10:25;49223.09;;;-149.77;29.71
60055;BME280;45930;53.514;55.904;2023-04-08T04:11:26;49203.28;;;-149.77;29.82
60055;BME280;45930;53.514;55.904;2023-04-08T04:12:27;49219.13;;;-149.77;30.19
60055;BME280;45930;53.514;55.904;2023-04-08T04:13:27;49203.28;;;-149.77;29.65
60055;BME280;45930;53.514;55.904;2023-04-08T04:14:28;49211.19;;;-149.77;29.06
60055;BME280;45930;53.514;55.904;2023-04-08T04:15:29;49197.34;;;-149.77;28.83
60055;BME280;45930;53.514;55.904;2023-04-08T04:16:30;49197.34;;;-149.77;28.56
60055;BME280;45930;53.514;55.904;2023-04-08T04:17:31;49201.28;;;-149.77;28.91
60055;BME280;45930;53.514;55.904;2023-04-08T04:18:32;49211.19;;;-149.77;28.98
60055;BME280;45930;53.514;55.904;2023-04-08T04:19:33;49167.63;;;-149.77;28.81
60055;BME280;45930;53.514;55.904;2023-04-08T04:20:33;49201.28;;;-149.77;29.11
60055;BME280;45930;53.514;55.904;2023-04-08T04:21:35;49207.25;;;-149.77;28.92
60055;BME280;45930;53.514;55.904;2023-04-08T04:22:35;49175.53;;;-149.77;29.30
60055;BME280;45930;53.514;55.904;2023-04-08T04:23:36;49203.28;;;-149.77;28.98
60055;BME280;45930;53.514;55.904;2023-04-08T04:24:37;49195.34;;;-149.77;28.95
60055;BME280;45930;53.514;55.904;2023-04-08T04:25:42;49183.47;;;-149.77;29.12
60055;BME280;45930;53.514;55.904;2023-04-08T04:26:43;49183.47;;;-149.77;28.32
60055;BME280;45930;53.514;55.904;2023-04-08T04:27:44;49195.34;;;-149.77;28.37
60055;BME280;45930;53.514;55.904;2023-04-08T04:28:45;49211.19;;;-149.77;28.58
60055;BME280;45930;53.514;55.904;2023-04-08T04:29:46;49197.34;;;-149.77;28.71
60055;BME280;45930;53.514;55.904;2023-04-08T04:30:46;49191.38;;;-149.77;28.66
60055;BME280;45930;53.514;55.904;2023-04-08T04:31:47;49201.28;;;-149.77;28.03
60055;BME280;45930;53.514;55.904;2023-04-08T04:32:48;49191.38;;;-149.77;28.04
60055;BME280;45930;53.514;55.904;2023-04-08T04:33:49;49201.28;;;-149.77;28.22
60055;BME280;45930;53.514;55.904;2023-04-08T04:34:50;49191.38;;;-149.77;28.29
60055;BME280;45930;53.514;55.904;2023-04-08T04:35:51;49223.09;;;-149.77;28.61
60055;BME280;45930;53.514;55.904;2023-04-08T04:36:51;49167.63;;;-149.77;28.30
60055;BME280;45930;53.514;55.904;2023-04-08T04:37:52;49203.28;;;-149.77;28.45
60055;BME280;45930;53.514;55.904;2023-04-08T04:38:53;49189.41;;;-149.77;28.59
60055;BME280;45930;53.514;55.904;2023-04-08T04:39:54;49199.31;;;-149.77;28.66
60055;BME280;45930;53.514;55.904;2023-04-08T04:40:54;49195.34;;;-149.77;28.53
60055;BME280;45930;53.514;55.904;2023-04-08T04:41:56;49197.34;;;-149.77;28.53
60055;BME280;45930;53.514;55.904;2023-04-08T04:42:56;49199.31;;;-149.77;28.64
60055;BME280;45930;53.514;55.904;2023-04-08T04:43:57;49191.38;;;-149.77;28.25
60055;BME280;45930;53.514;55.904;2023-04-08T04:44:58;49189.41;;;-149.77;27.99
60055;BME280;45930;53.514;55.904;2023-04-08T04:45:59;49211.19;;;-149.77;28.25
60055;BME280;45930;53.514;55.904;2023-04-08T04:47:00;49201.28;;;-149.77;28.06
60055;BME280;45930;53.514;55.904;2023-04-08T04:48:01;49171.59;;;-149.77;28.00
60055;BME280;45930;53.514;55.904;2023-04-08T04:49:03;49181.50;;;-149.77;28.00
60055;BME280;45930;53.514;55.904;2023-04-08T04:50:04;49189.41;;;-149.77;28.51
60055;BME280;45930;53.514;55.904;2023-04-08T04:51:14;49185.44;;;-149.77;28.50
60055;BME280;45930;53.514;55.904;2023-04-08T04:52:20;49171.59;;;-149.77;28.17
60055;BME280;45930;53.514;55.904;2023-04-08T04:53:21;49189.41;;;-149.77;28.08
60055;BME280;45930;53.514;55.904;2023-04-08T04:54:21;49187.44;;;-149.77;27.99
60055;BME280;45930;53.514;55.904;2023-04-08T04:55:22;49199.31;;;-149.77;28.07
60055;BME280;45930;53.514;55.904;2023-04-08T04:56:23;49177.53;;;-149.77;28.29
60055;BME280;45930;53.514;55.904;2023-04-08T04:57:25;49171.59;;;-149.77;28.16
60055;BME280;45930;53.514;55.904;2023-04-08T04:58:26;49213.19;;;-149.77;27.91
60055;BME280;45930;53.514;55.904;2023-04-08T04:59:27;49155.75;;;-149.77;27.56
60055;BME280;45930;53.514;55.904;2023-04-08T05:00:28;49151.78;;;-149.77;27.71
60055;BME280;45930;53.514;55.904;2023-04-08T05:01:29;49195.34;;;-149.77;27.72
60055;BME280;45930;53.514;55.904;2023-04-08T05:02:30;49177.53;;;-149.77;27.93
60055;BME280;45930;53.514;55.904;2023-04-08T05:03:31;49183.47;;;-149.77;27.90
60055;BME280;45930;53.514;55.904;2023-04-08T05:04:31;49167.63;;;-149.77;28.09
60055;BME280;45930;53.514;55.904;2023-04-08T05:05:32;49183.47;;;-149.77;27.79
60055;BME280;45930;53.514;55.904;2023-04-08T05:06:33;49179.50;;;-149.77;27.74
60055;BME280;45930;53.514;55.904;2023-04-08T05:07:35;49169.59;;;-149.77;27.58
60055;BME280;45930;53.514;55.904;2023-04-08T05:08:36;49177.53;;;-149.77;27.48
60055;BME280;45930;53.514;55.904;2023-04-08T05:09:36;49147.81;;;-149.77;27.91
60055;BME280;45930;53.514;55.904;2023-04-08T05:10:39;49159.69;;;-149.77;27.01
60055;BME280;45930;53.514;55.904;2023-04-08T05:11:42;49171.59;;;-149.77;27.09
60055;BME280;45930;53.514;55.904;2023-04-08T05:12:43;49181.50;;;-149.77;26.72
60055;BME280;45930;53.514;55.904;2023-04-08T05:13:46;49187.44;;;-149.77;27.40
60055;BME280;45930;53.514;55.904;2023-04-08T05:14:47;49171.59;;;-149.77;27.67
60055;BME280;45930;53.514;55.904;2023-04-08T05:15:48;49169.59;;;-149.77;27.73
60055;BME280;45930;53.514;55.904;2023-04-08T05:16:49;49191.38;;;-149.77;27.54
60055;BME280;45930;53.514;55.904;2023-04-08T05:17:50;49169.59;;;-149.77;27.33
60055;BME280;45930;53.514;55.904;2023-04-08T05:18:50;49149.78;;;-149.77;27.22
60055;BME280;45930;53.514;55.904;2023-04-08T05:19:51;49159.69;;;-149.77;27.61
60055;BME280;45930;53.514;55.904;2023-04-08T05:20:53;49193.38;;;-149.77;27.53
60055;BME280;45930;53.514;55.904;2023-04-08T05:21:53;49155.75;;;-149.77;27.34